Time;durP1;ratioP1;P1;durP2;ratioP2;P2;SDS_P1;SDS_P2;PMS_P1;PMS_P2;Temp;Humidity;BMP_temperature;BMP_pressure;BME280_temperature;BME280_humidity;BME280_pressure;Samples;Min_cycle;Max_cycle;Signal;HPM_P1;HPM_P2
2022/06/08 00:01:22;;;;;;;22.48;13.63;;;;;;;;;;5031757;28;20517;-68
2022/06/08 00:03:52;;;;;;;26.85;14.57;;;;;;;;;;5029702;28;20121;-68
2022/06/08 00:06:18;;;;;;;21.48;13.77;;;;;;;;;;5031353;28;20035;-68
2022/06/08 00:08:44;;;;;;;24.42;14.32;;;;;;;;;;5037065;28;20557;-69
2022/06/08 00:11:10;;;;;;;24.83;15.23;;;;;;;;;;5035435;28;20108;-67
2022/06/08 00:13:36;;;;;;;20.05;13.55;;;;;;;;;;5033041;28;20190;-69
2022/06/08 00:16:02;;;;;;;27.52;15.23;;;;;;;;;;5029346;28;20032;-70
2022/06/08 00:18:28;;;;;;;24.55;13.88;;;;;;;;;;5029249;28;20052;-68
2022/06/08 00:20:54;;;;;;;22.50;13.38;;;;;;;;;;5029696;28;20642;-69
2022/06/08 00:23:21;;;;;;;21.52;12.45;;;;;;;;;;5039428;28;20029;-68
2022/06/08 00:25:47;;;;;;;22.38;12.15;;;;;;;;;;5033514;28;20036;-68
2022/06/08 00:28:14;;;;;;;20.48;11.82;;;;;;;;;;5030303;28;20038;-69
2022/06/08 00:30:40;;;;;;;21.17;11.93;;;;;;;;;;5032417;28;20055;-69
2022/06/08 00:33:06;;;;;;;21.35;12.25;;;;;;;;;;5029142;28;20115;-69
2022/06/08 00:35:32;;;;;;;22.65;11.98;;;;;;;;;;5030922;28;20247;-69
2022/06/08 00:37:58;;;;;;;26.08;11.57;;;;;;;;;;5037849;28;20028;-69
2022/06/08 00:40:31;;;;;;;20.45;11.07;;;;;;;;;;5031830;28;20029;-69
2022/06/08 00:42:57;;;;;;;21.58;11.82;;;;;;;;;;5038740;28;20022;-69
2022/06/08 00:45:23;;;;;;;22.73;12.00;;;;;;;;;;5034634;28;20041;-69
2022/06/08 00:47:53;;;;;;;20.55;11.73;;;;;;;;;;5038478;28;20029;-69
2022/06/08 00:50:21;;;;;;;24.20;12.13;;;;;;;;;;5005968;28;20033;-69
2022/06/08 00:52:48;;;;;;;24.80;12.40;;;;;;;;;;5023360;28;20160;-69
2022/06/08 00:55:15;;;;;;;23.63;12.40;;;;;;;;;;5031362;28;20025;-70
2022/06/08 00:57:46;;;;;;;23.23;11.48;;;;;;;;;;5030560;28;20021;-70
2022/06/08 01:00:18;;;;;;;24.50;12.15;;;;;;;;;;5030435;28;20040;-69
2022/06/08 01:02:44;;;;;;;23.80;12.00;;;;;;;;;;5035929;28;20048;-69
2022/06/08 01:05:17;;;;;;;23.88;12.82;;;;;;;;;;5035153;28;20033;-67
2022/06/08 01:07:43;;;;;;;26.52;12.75;;;;;;;;;;5032915;28;20165;-68
2022/06/08 01:10:13;;;;;;;26.70;13.02;;;;;;;;;;5028078;28;20038;-69
2022/06/08 01:12:39;;;;;;;31.98;15.00;;;;;;;;;;5037952;28;20171;-70
2022/06/08 01:15:06;;;;;;;32.25;14.73;;;;;;;;;;5036625;28;20167;-68
2022/06/08 01:17:32;;;;;;;31.20;15.40;;;;;;;;;;5039501;28;20198;-69
2022/06/08 01:19:58;;;;;;;33.55;15.35;;;;;;;;;;5030940;28;20048;-69
2022/06/08 01:22:24;;;;;;;27.45;14.88;;;;;;;;;;5028872;28;20036;-69
2022/06/08 01:24:51;;;;;;;30.20;15.23;;;;;;;;;;5033450;28;20399;-69
2022/06/08 01:27:44;;;;;;;31.63;15.70;;;;;;;;;;5031367;28;20030;-69
2022/06/08 01:30:16;;;;;;;37.45;16.15;;;;;;;;;;5001395;28;20035;-68
2022/06/08 01:33:00;;;;;;;29.58;16.80;;;;;;;;;;5036343;28;20038;-69
2022/06/08 01:35:35;;;;;;;31.33;16.13;;;;;;;;;;5024428;28;20495;-68
2022/06/08 01:38:09;;;;;;;31.17;16.33;;;;;;;;;;5030432;28;20079;-68
2022/06/08 01:40:35;;;;;;;31.95;17.10;;;;;;;;;;5026720;28;20057;-68
2022/06/08 01:43:04;;;;;;;35.42;18.33;;;;;;;;;;5052498;28;20021;-68
2022/06/08 01:45:42;;;;;;;39.35;20.27;;;;;;;;;;5031832;28;20044;-68
2022/06/08 01:48:08;;;;;;;43.75;21.88;;;;;;;;;;5037138;28;20051;-69
2022/06/08 01:50:54;;;;;;;43.00;23.23;;;;;;;;;;5036339;28;20108;-68
2022/06/08 01:53:27;;;;;;;45.80;24.08;;;;;;;;;;5031855;28;20509;-69
2022/06/08 01:56:03;;;;;;;47.10;24.90;;;;;;;;;;5032733;28;20029;-68
2022/06/08 01:58:48;;;;;;;53.72;26.88;;;;;;;;;;5034189;28;20029;-68
2022/06/08 02:01:20;;;;;;;54.78;27.80;;;;;;;;;;5027165;28;20032;-69
2022/06/08 02:04:13;;;;;;;51.78;28.60;;;;;;;;;;5034995;28;20993;-69
2022/06/08 02:06:44;;;;;;;62.58;31.42;;;;;;;;;;5027031;28;20037;-68
2022/06/08 02:09:13;;;;;;;69.03;33.30;;;;;;;;;;5035370;28;20030;-69
2022/06/08 02:11:39;;;;;;;66.75;33.83;;;;;;;;;;5030023;28;20033;-69
2022/06/08 02:14:14;;;;;;;72.40;34.75;;;;;;;;;;5028609;28;20103;-69
2022/06/08 02:16:46;;;;;;;74.75;36.45;;;;;;;;;;5030792;28;20037;-69
2022/06/08 02:19:15;;;;;;;74.20;37.03;;;;;;;;;;5027475;28;21594;-70
2022/06/08 02:21:45;;;;;;;78.97;38.25;;;;;;;;;;5027221;28;20031;-70
2022/06/08 02:24:15;;;;;;;79.03;38.70;;;;;;;;;;5031480;28;20060;-69
2022/06/08 02:26:48;;;;;;;81.43;40.00;;;;;;;;;;5025959;28;20025;-70
2022/06/08 02:29:17;;;;;;;79.75;38.67;;;;;;;;;;5030136;28;20034;-69
2022/06/08 02:31:47;;;;;;;77.63;37.70;;;;;;;;;;5026472;28;20423;-69
2022/06/08 02:34:28;;;;;;;89.45;42.50;;;;;;;;;;5038599;28;20037;-69
2022/06/08 02:36:57;;;;;;;97.45;42.33;;;;;;;;;;5030530;28;20033;-69
2022/06/08 02:39:27;;;;;;;86.72;40.45;;;;;;;;;;5027416;28;20053;-68
2022/06/08 02:41:54;;;;;;;96.88;41.47;;;;;;;;;;5031455;28;20025;-68
2022/06/08 02:44:25;;;;;;;94.53;42.75;;;;;;;;;;5028944;28;20045;-68
2022/06/08 02:47:00;;;;;;;104.47;41.72;;;;;;;;;;5028847;28;20120;-68
2022/06/08 02:49:26;;;;;;;103.15;44.40;;;;;;;;;;5033768;28;20192;-68
2022/06/08 02:51:57;;;;;;;101.68;43.67;;;;;;;;;;5033774;28;20119;-68
2022/06/08 02:54:25;;;;;;;111.45;43.83;;;;;;;;;;5036811;28;20037;-68
2022/06/08 02:57:00;;;;;;;110.95;45.65;;;;;;;;;;5040862;28;20029;-69
2022/06/08 02:59:56;;;;;;;102.72;44.13;;;;;;;;;;5033628;28;20038;-69
2022/06/08 03:02:26;;;;;;;113.88;45.47;;;;;;;;;;5025139;28;20144;-70
2022/06/08 03:05:04;;;;;;;115.32;46.78;;;;;;;;;;5035365;28;20034;-69
2022/06/08 03:07:32;;;;;;;124.45;46.40;;;;;;;;;;5038697;28;20025;-69
2022/06/08 03:09:59;;;;;;;111.47;46.53;;;;;;;;;;5031484;28;20032;-69
2022/06/08 03:12:33;;;;;;;137.50;50.42;;;;;;;;;;5037247;28;20469;-69
2022/06/08 03:15:00;;;;;;;133.80;50.47;;;;;;;;;;5031626;28;20056;-69
2022/06/08 03:17:30;;;;;;;131.95;49.78;;;;;;;;;;5039622;28;20103;-70
2022/06/08 03:19:56;;;;;;;126.68;49.88;;;;;;;;;;5032538;28;20041;-69
2022/06/08 03:22:22;;;;;;;136.32;51.85;;;;;;;;;;5033511;28;20040;-70
2022/06/08 03:24:48;;;;;;;130.00;50.13;;;;;;;;;;5038502;28;20025;-69
2022/06/08 03:27:14;;;;;;;136.07;51.15;;;;;;;;;;5035355;28;20065;-69
2022/06/08 03:29:40;;;;;;;125.80;49.95;;;;;;;;;;5032314;28;20065;-69
2022/06/08 03:32:07;;;;;;;122.50;48.67;;;;;;;;;;5034505;28;20045;-68
2022/06/08 03:34:33;;;;;;;117.40;47.13;;;;;;;;;;5030567;28;20055;-69
2022/06/08 03:36:59;;;;;;;113.03;46.55;;;;;;;;;;5031569;28;20222;-69
2022/06/08 03:39:25;;;;;;;110.80;45.58;;;;;;;;;;5051385;28;20028;-68
2022/06/08 03:41:52;;;;;;;100.35;43.42;;;;;;;;;;5028340;28;20025;-69
2022/06/08 03:44:18;;;;;;;103.75;43.30;;;;;;;;;;5035056;28;20037;-69
2022/06/08 03:47:02;;;;;;;96.63;42.53;;;;;;;;;;5030186;28;20069;-70
2022/06/08 03:49:28;;;;;;;89.55;40.47;;;;;;;;;;5037023;28;20068;-69
2022/06/08 03:51:56;;;;;;;91.22;40.72;;;;;;;;;;5031699;28;20032;-69
2022/06/08 03:54:25;;;;;;;79.07;38.00;;;;;;;;;;5032362;28;20079;-70
2022/06/08 03:57:00;;;;;;;71.70;35.47;;;;;;;;;;5033149;28;20059;-69
2022/06/08 03:59:27;;;;;;;64.57;34.55;;;;;;;;;;5026926;28;20040;-68
2022/06/08 04:01:53;;;;;;;61.72;32.72;;;;;;;;;;5029058;28;20030;-69
2022/06/08 04:04:19;;;;;;;56.10;30.15;;;;;;;;;;5037774;28;20113;-70
2022/06/08 04:06:46;;;;;;;52.15;27.08;;;;;;;;;;5036047;28;20044;-68
2022/06/08 04:09:12;;;;;;;47.47;26.52;;;;;;;;;;5032665;28;20057;-68
2022/06/08 04:11:38;;;;;;;47.15;25.05;;;;;;;;;;5028234;28;20037;-68
2022/06/08 04:14:04;;;;;;;45.53;24.60;;;;;;;;;;5055202;28;20052;-68
2022/06/08 04:16:30;;;;;;;43.95;23.75;;;;;;;;;;5033576;28;20098;-68
2022/06/08 04:18:56;;;;;;;40.60;24.38;;;;;;;;;;5028989;28;20033;-68
2022/06/08 04:21:22;;;;;;;41.60;24.33;;;;;;;;;;5032422;28;20037;-69
2022/06/08 04:23:49;;;;;;;45.72;25.73;;;;;;;;;;5034295;28;20063;-69
2022/06/08 04:26:15;;;;;;;41.38;26.00;;;;;;;;;;5030167;28;20037;-69
2022/06/08 04:28:42;;;;;;;43.47;26.70;;;;;;;;;;5034558;28;20078;-70
2022/06/08 04:31:09;;;;;;;41.85;25.10;;;;;;;;;;5035264;28;20458;-69
2022/06/08 04:33:35;;;;;;;40.90;25.40;;;;;;;;;;5039777;28;20083;-69
2022/06/08 04:36:01;;;;;;;37.08;23.52;;;;;;;;;;5031661;28;20123;-70
2022/06/08 04:38:27;;;;;;;38.80;24.38;;;;;;;;;;5033013;28;20041;-68
2022/06/08 04:40:53;;;;;;;34.42;22.98;;;;;;;;;;5032291;28;20112;-69
2022/06/08 04:43:20;;;;;;;36.75;22.38;;;;;;;;;;5037000;28;20066;-69
2022/06/08 04:45:46;;;;;;;39.72;20.50;;;;;;;;;;5034290;28;20096;-68
2022/06/08 04:48:12;;;;;;;26.38;18.80;;;;;;;;;;5039058;28;20045;-68
2022/06/08 04:50:39;;;;;;;25.73;18.05;;;;;;;;;;5029028;28;20478;-68
2022/06/08 04:53:05;;;;;;;24.25;18.33;;;;;;;;;;5031682;28;20033;-67
2022/06/08 04:55:31;;;;;;;25.63;19.30;;;;;;;;;;5036743;28;20033;-68
2022/06/08 04:57:57;;;;;;;26.55;19.30;;;;;;;;;;5034392;28;20065;-67
2022/06/08 05:00:24;;;;;;;24.95;19.45;;;;;;;;;;5021855;28;20025;-68
2022/06/08 05:02:50;;;;;;;29.00;19.83;;;;;;;;;;5032846;28;20226;-67
2022/06/08 05:05:19;;;;;;;26.50;20.67;;;;;;;;;;5027272;28;20036;-68
2022/06/08 05:07:45;;;;;;;29.05;20.88;;;;;;;;;;5037873;28;20116;-69
2022/06/08 05:10:12;;;;;;;28.85;20.10;;;;;;;;;;5027969;28;20025;-68
2022/06/08 05:12:38;;;;;;;29.42;20.05;;;;;;;;;;5024844;28;20064;-68
2022/06/08 05:15:07;;;;;;;30.35;21.15;;;;;;;;;;5036793;28;20220;-68
2022/06/08 05:17:33;;;;;;;25.42;19.48;;;;;;;;;;5028833;28;20033;-69
2022/06/08 05:19:59;;;;;;;26.52;19.13;;;;;;;;;;5029352;28;20065;-68
2022/06/08 05:22:25;;;;;;;27.90;20.58;;;;;;;;;;5025217;28;20034;-67
2022/06/08 05:24:51;;;;;;;26.83;20.35;;;;;;;;;;5033733;28;20029;-70
2022/06/08 05:27:17;;;;;;;31.35;20.63;;;;;;;;;;5034739;28;20570;-69
2022/06/08 05:29:44;;;;;;;27.23;20.30;;;;;;;;;;5028662;28;20695;-68
2022/06/08 05:32:10;;;;;;;28.15;20.85;;;;;;;;;;5038298;28;20083;-68
2022/06/08 05:34:36;;;;;;;30.48;20.80;;;;;;;;;;5038203;28;20152;-68
2022/06/08 05:37:02;;;;;;;29.52;21.17;;;;;;;;;;5028160;28;20387;-68
2022/06/08 05:39:28;;;;;;;27.95;20.60;;;;;;;;;;5020372;28;20033;-68
2022/06/08 05:41:54;;;;;;;27.85;19.75;;;;;;;;;;5039537;28;20028;-68
2022/06/08 05:44:21;;;;;;;30.15;20.48;;;;;;;;;;5038899;28;20104;-68
2022/06/08 05:46:50;;;;;;;28.02;19.77;;;;;;;;;;5033052;28;20094;-68
2022/06/08 05:49:17;;;;;;;27.92;19.42;;;;;;;;;;5032250;28;20430;-68
2022/06/08 05:51:43;;;;;;;26.40;19.40;;;;;;;;;;5032905;28;20033;-68
2022/06/08 05:54:09;;;;;;;27.67;20.40;;;;;;;;;;5032165;28;20033;-69
2022/06/08 05:56:35;;;;;;;26.80;18.48;;;;;;;;;;5036249;28;20033;-69
2022/06/08 05:59:01;;;;;;;25.83;19.35;;;;;;;;;;5033491;28;20047;-69
2022/06/08 06:01:27;;;;;;;27.00;18.90;;;;;;;;;;5013396;28;20025;-68
2022/06/08 06:03:54;;;;;;;23.85;16.75;;;;;;;;;;5034166;28;20038;-69
2022/06/08 06:06:20;;;;;;;24.92;17.90;;;;;;;;;;5038875;28;20032;-68
2022/06/08 06:08:46;;;;;;;22.42;16.35;;;;;;;;;;5036248;28;20037;-68
2022/06/08 06:11:15;;;;;;;20.95;16.52;;;;;;;;;;5039605;28;20029;-68
2022/06/08 06:13:41;;;;;;;22.75;15.70;;;;;;;;;;5034745;28;20094;-71
2022/06/08 06:16:08;;;;;;;21.50;15.00;;;;;;;;;;5036821;28;20391;-68
2022/06/08 06:18:34;;;;;;;18.48;14.70;;;;;;;;;;5017755;28;20045;-68
2022/06/08 06:21:00;;;;;;;21.02;15.27;;;;;;;;;;5030959;28;20479;-68
2022/06/08 06:23:27;;;;;;;20.98;14.85;;;;;;;;;;5022969;28;20029;-69
2022/06/08 06:25:53;;;;;;;19.83;14.98;;;;;;;;;;5025802;28;20036;-68
2022/06/08 06:28:19;;;;;;;17.55;14.00;;;;;;;;;;5030395;28;20033;-69
2022/06/08 06:30:45;;;;;;;21.08;13.82;;;;;;;;;;5030772;28;20518;-69
2022/06/08 06:33:13;;;;;;;21.90;13.20;;;;;;;;;;5044132;28;20042;-68
2022/06/08 06:35:40;;;;;;;18.90;14.13;;;;;;;;;;5032199;28;20033;-68
2022/06/08 06:38:06;;;;;;;19.85;14.02;;;;;;;;;;5034173;28;20055;-68
2022/06/08 06:40:32;;;;;;;17.98;13.68;;;;;;;;;;5030976;28;20554;-68
2022/06/08 06:42:59;;;;;;;16.63;13.27;;;;;;;;;;5043238;28;20149;-68
2022/06/08 06:45:26;;;;;;;16.48;12.00;;;;;;;;;;5032226;28;20045;-68
2022/06/08 06:47:52;;;;;;;16.42;11.82;;;;;;;;;;5032146;28;20025;-69
2022/06/08 06:50:18;;;;;;;16.17;12.02;;;;;;;;;;5032534;28;20029;-69
2022/06/08 06:52:45;;;;;;;14.40;11.15;;;;;;;;;;5033016;28;20029;-69
2022/06/08 06:55:22;;;;;;;12.88;10.50;;;;;;;;;;5032444;28;20093;-69
2022/06/08 06:57:48;;;;;;;13.18;9.18;;;;;;;;;;5032895;28;20066;-69
2022/06/08 07:00:16;;;;;;;11.80;8.68;;;;;;;;;;5032309;28;20030;-69
2022/06/08 07:02:42;;;;;;;13.68;8.95;;;;;;;;;;5027615;28;20459;-69
2022/06/08 07:05:15;;;;;;;14.68;9.05;;;;;;;;;;5026930;28;20017;-69
2022/06/08 07:07:41;;;;;;;10.10;7.13;;;;;;;;;;5031320;28;20090;-69
2022/06/08 07:10:07;;;;;;;10.23;7.15;;;;;;;;;;5030749;28;20527;-68
2022/06/08 07:12:33;;;;;;;13.43;7.63;;;;;;;;;;5028583;28;20414;-69
2022/06/08 07:14:59;;;;;;;10.07;7.10;;;;;;;;;;5030884;28;20484;-69
2022/06/08 07:17:25;;;;;;;15.30;7.05;;;;;;;;;;5044444;28;20611;-69
2022/06/08 07:19:51;;;;;;;16.02;7.88;;;;;;;;;;5037349;28;20083;-70
2022/06/08 07:22:17;;;;;;;10.98;7.45;;;;;;;;;;5040942;28;20029;-68
2022/06/08 07:24:44;;;;;;;9.05;7.18;;;;;;;;;;5037821;28;20034;-69
2022/06/08 07:27:10;;;;;;;11.65;7.85;;;;;;;;;;5031568;28;20635;-69
2022/06/08 07:29:36;;;;;;;10.75;6.47;;;;;;;;;;5023263;28;20151;-69
2022/06/08 07:32:03;;;;;;;10.38;7.60;;;;;;;;;;5033898;28;20069;-69
2022/06/08 07:34:29;;;;;;;10.32;7.07;;;;;;;;;;5013652;28;20030;-69
2022/06/08 07:36:55;;;;;;;9.95;7.13;;;;;;;;;;5012752;28;20045;-70
2022/06/08 07:39:22;;;;;;;7.97;6.30;;;;;;;;;;5023879;28;20506;-69
2022/06/08 07:41:49;;;;;;;8.48;6.05;;;;;;;;;;5036380;28;20021;-69
2022/06/08 07:44:15;;;;;;;9.57;6.13;;;;;;;;;;5040335;28;20089;-68
2022/06/08 07:46:41;;;;;;;12.98;6.75;;;;;;;;;;5042219;28;20076;-69
2022/06/08 07:51:54;;;;;;;12.73;6.63;;;;;;;;;;5034231;28;20060;-68
2022/06/08 07:54:24;;;;;;;12.27;6.65;;;;;;;;;;5041957;28;20495;-69
2022/06/08 07:56:51;;;;;;;12.13;6.25;;;;;;;;;;5037690;28;20029;-69
2022/06/08 07:59:18;;;;;;;9.35;6.15;;;;;;;;;;5028336;28;20021;-69
2022/06/08 08:01:44;;;;;;;12.55;7.30;;;;;;;;;;5036492;28;20030;-69
2022/06/08 08:04:10;;;;;;;9.88;7.20;;;;;;;;;;5037605;28;20348;-68
2022/06/08 08:06:36;;;;;;;10.40;6.78;;;;;;;;;;5047072;28;20572;-68
2022/06/08 08:09:03;;;;;;;10.57;7.50;;;;;;;;;;5040589;28;20033;-69
2022/06/08 08:11:29;;;;;;;12.88;6.97;;;;;;;;;;5033071;28;20103;-69
2022/06/08 08:13:55;;;;;;;9.60;7.05;;;;;;;;;;5038323;28;20033;-69
2022/06/08 08:16:21;;;;;;;13.07;6.88;;;;;;;;;;5039174;28;20037;-71
2022/06/08 08:18:48;;;;;;;13.50;7.43;;;;;;;;;;5044282;28;20029;-68
2022/06/08 08:21:14;;;;;;;10.90;7.40;;;;;;;;;;5042127;28;20457;-69
2022/06/08 08:23:40;;;;;;;10.93;7.72;;;;;;;;;;5039216;28;20438;-67
2022/06/08 08:26:06;;;;;;;11.50;7.22;;;;;;;;;;5034160;28;20221;-69
2022/06/08 08:28:33;;;;;;;18.02;7.82;;;;;;;;;;5040460;28;20029;-70
2022/06/08 08:30:59;;;;;;;10.93;7.95;;;;;;;;;;5041250;28;20036;-70
2022/06/08 08:33:25;;;;;;;10.85;7.15;;;;;;;;;;5034274;28;20043;-68
2022/06/08 08:35:52;;;;;;;12.88;6.50;;;;;;;;;;5040396;28;20032;-69
2022/06/08 08:38:19;;;;;;;13.77;6.18;;;;;;;;;;5037481;28;20046;-69
2022/06/08 08:40:48;;;;;;;10.85;6.20;;;;;;;;;;5037933;28;20051;-70
2022/06/08 08:43:34;;;;;;;10.52;6.05;;;;;;;;;;5030758;28;20025;-69
2022/06/08 08:46:13;;;;;;;11.90;6.03;;;;;;;;;;5034328;28;20682;-69
2022/06/08 08:48:52;;;;;;;12.65;6.47;;;;;;;;;;5039535;28;20028;-69
2022/06/08 08:51:23;;;;;;;10.48;6.18;;;;;;;;;;5037754;28;20025;-68
2022/06/08 08:54:08;;;;;;;12.57;6.20;;;;;;;;;;5039140;28;20133;-68
2022/06/08 08:56:37;;;;;;;10.23;6.28;;;;;;;;;;5034456;28;20034;-69
2022/06/08 08:59:10;;;;;;;14.70;6.85;;;;;;;;;;5032752;28;20567;-68
2022/06/08 09:01:39;;;;;;;13.80;6.70;;;;;;;;;;5030062;28;20281;-68
2022/06/08 09:04:14;;;;;;;14.80;7.30;;;;;;;;;;5029403;28;20442;-69
2022/06/08 09:06:40;;;;;;;14.75;8.00;;;;;;;;;;5030103;28;20036;-69
2022/06/08 09:09:10;;;;;;;11.48;7.30;;;;;;;;;;5031823;28;20156;-69
2022/06/08 09:11:38;;;;;;;11.50;7.30;;;;;;;;;;5037682;28;20503;-69
2022/06/08 09:14:22;;;;;;;14.68;8.27;;;;;;;;;;5033249;28;20080;-69
2022/06/08 09:16:53;;;;;;;14.75;7.95;;;;;;;;;;5030599;28;20029;-68
2022/06/08 09:19:22;;;;;;;13.02;7.82;;;;;;;;;;5030288;28;20066;-69
2022/06/08 09:21:49;;;;;;;13.23;7.68;;;;;;;;;;5035137;28;20028;-70
2022/06/08 09:24:18;;;;;;;17.85;7.82;;;;;;;;;;5035225;28;20396;-70
2022/06/08 09:26:45;;;;;;;11.18;7.95;;;;;;;;;;5035464;28;20029;-70
2022/06/08 09:29:16;;;;;;;12.05;8.57;;;;;;;;;;5026833;28;20029;-69
2022/06/08 09:31:43;;;;;;;13.23;8.25;;;;;;;;;;5038691;28;20320;-68
2022/06/08 09:34:19;;;;;;;17.52;8.85;;;;;;;;;;5027500;28;20120;-70
2022/06/08 09:36:46;;;;;;;12.35;8.95;;;;;;;;;;5030103;28;20029;-67
2022/06/08 09:39:19;;;;;;;18.58;9.40;;;;;;;;;;5027917;28;20057;-66
2022/06/08 09:41:50;;;;;;;18.98;9.40;;;;;;;;;;5028470;28;20022;-68
2022/06/08 09:44:19;;;;;;;11.75;9.40;;;;;;;;;;5037692;28;20032;-68
2022/06/08 09:52:47;;;;;;;25.42;10.95;;;;;;;;;;5037122;28;20040;-69
2022/06/08 09:55:32;;;;;;;39.17;14.18;;;;;;;;;;5043448;28;20036;-71
2022/06/08 09:58:04;;;;;;;20.85;14.88;;;;;;;;;;5027233;28;20041;-69
2022/06/08 10:00:35;;;;;;;19.35;14.98;;;;;;;;;;5029475;28;20459;-70
2022/06/08 10:03:20;;;;;;;20.60;14.52;;;;;;;;;;5027761;28;20025;-69
2022/06/08 10:05:57;;;;;;;20.85;13.13;;;;;;;;;;5022998;28;20037;-70
2022/06/08 10:08:24;;;;;;;16.33;12.77;;;;;;;;;;5032561;28;20498;-69
2022/06/08 10:14:01;;;;;;;11.45;7.43;;;;;;;;;;5029610;28;20115;-69
2022/06/08 10:16:29;;;;;;;12.93;5.85;;;;;;;;;;5026832;28;20159;-69
2022/06/08 10:19:01;;;;;;;11.85;5.00;;;;;;;;;;5038570;28;20556;-70
2022/06/08 10:21:31;;;;;;;14.05;4.45;;;;;;;;;;5029832;28;20080;-70
2022/06/08 10:24:00;;;;;;;8.73;3.40;;;;;;;;;;5035194;28;20017;-68
2022/06/08 10:26:35;;;;;;;8.75;3.70;;;;;;;;;;5023898;28;20033;-69
2022/06/08 10:29:07;;;;;;;8.43;3.17;;;;;;;;;;5028309;28;20105;-68
2022/06/08 10:31:33;;;;;;;9.27;3.35;;;;;;;;;;5026508;28;20083;-68
2022/06/08 10:34:13;;;;;;;8.50;2.50;;;;;;;;;;5033223;28;20052;-68
2022/06/08 10:36:41;;;;;;;5.97;2.03;;;;;;;;;;5012274;28;20056;-68
2022/06/08 10:39:08;;;;;;;8.52;1.95;;;;;;;;;;5008794;28;20049;-69
2022/06/08 10:44:53;;;;;;;8.63;2.03;;;;;;;;;;5022072;28;20281;-69
2022/06/08 10:47:25;;;;;;;7.93;2.00;;;;;;;;;;5010578;28;20491;-69
2022/06/08 10:49:53;;;;;;;12.23;2.17;;;;;;;;;;5023363;28;20122;-69
2022/06/08 10:52:19;;;;;;;11.43;2.58;;;;;;;;;;5022391;28;20030;-69
2022/06/08 10:54:56;;;;;;;6.43;1.83;;;;;;;;;;5021616;28;20037;-68
2022/06/08 10:57:37;;;;;;;9.50;2.25;;;;;;;;;;5026998;28;20024;-69
2022/06/08 11:00:22;;;;;;;7.47;2.60;;;;;;;;;;5021525;28;20030;-68
2022/06/08 11:03:02;;;;;;;9.38;2.55;;;;;;;;;;5024536;28;20472;-70
2022/06/08 11:05:31;;;;;;;11.98;2.42;;;;;;;;;;5022156;28;20037;-69
2022/06/08 11:08:06;;;;;;;11.35;2.80;;;;;;;;;;5020405;28;20135;-70
2022/06/08 11:10:44;;;;;;;7.05;2.00;;;;;;;;;;5021550;28;20510;-68
2022/06/08 11:13:22;;;;;;;10.23;3.00;;;;;;;;;;5022183;28;20031;-69
2022/06/08 11:15:54;;;;;;;8.98;2.38;;;;;;;;;;5027446;28;20042;-70
2022/06/08 11:18:26;;;;;;;7.75;2.42;;;;;;;;;;5029894;28;20037;-68
2022/06/08 11:21:10;;;;;;;8.10;2.70;;;;;;;;;;5023587;28;20037;-69
2022/06/08 11:23:43;;;;;;;10.25;2.78;;;;;;;;;;5026753;28;20026;-70
2022/06/08 11:26:24;;;;;;;8.57;2.97;;;;;;;;;;5023789;28;20040;-70
2022/06/08 11:28:58;;;;;;;9.02;3.30;;;;;;;;;;5018611;28;20449;-70
2022/06/08 11:31:30;;;;;;;9.60;3.88;;;;;;;;;;5024332;28;20030;-70
2022/06/08 11:34:16;;;;;;;12.80;3.67;;;;;;;;;;5022485;28;20037;-70
2022/06/08 11:36:54;;;;;;;11.60;3.60;;;;;;;;;;5017544;28;20180;-69
2022/06/08 11:39:39;;;;;;;13.45;4.40;;;;;;;;;;5023167;28;20083;-67
2022/06/08 11:42:22;;;;;;;9.13;3.67;;;;;;;;;;5013136;28;20049;-67
2022/06/08 11:44:59;;;;;;;11.55;4.07;;;;;;;;;;5020491;28;20041;-67
2022/06/08 11:47:35;;;;;;;11.23;3.30;;;;;;;;;;5019435;28;20049;-66
2022/06/08 11:50:21;;;;;;;9.65;3.92;;;;;;;;;;5023549;28;20044;-67
2022/06/08 11:52:57;;;;;;;9.70;3.90;;;;;;;;;;5019843;28;21864;-67
2022/06/08 11:55:27;;;;;;;10.02;4.55;;;;;;;;;;5021477;28;20033;-66
2022/06/08 11:57:58;;;;;;;11.18;4.25;;;;;;;;;;5021237;28;20029;-67
2022/06/08 12:00:24;;;;;;;;;;;;;;;;;;5018203;28;20543;-67
2022/06/08 12:02:53;;;;;;;10.38;4.10;;;;;;;;;;5019319;28;20017;-67
2022/06/08 12:05:24;;;;;;;10.70;5.10;;;;;;;;;;5017995;28;20029;-66
2022/06/08 12:07:53;;;;;;;10.60;4.25;;;;;;;;;;5018291;28;20033;-67
2022/06/08 12:10:21;;;;;;;14.32;4.68;;;;;;;;;;5017704;28;20186;-67
2022/06/08 12:12:48;;;;;;;11.05;4.63;;;;;;;;;;5020143;28;20057;-67
2022/06/08 12:15:33;;;;;;;12.15;5.43;;;;;;;;;;5016263;28;20361;-67
2022/06/08 12:18:28;;;;;;;15.18;6.50;;;;;;;;;;5023669;28;20037;-67
2022/06/08 12:21:13;;;;;;;17.25;6.35;;;;;;;;;;4958069;28;20042;-67
2022/06/08 12:23:40;;;;;;;12.40;5.85;;;;;;;;;;5009276;28;20595;-67
2022/06/08 12:26:14;;;;;;;10.93;5.45;;;;;;;;;;5016646;28;20083;-67
2022/06/08 12:28:40;;;;;;;14.85;6.10;;;;;;;;;;5019655;28;20025;-66
2022/06/08 12:31:19;;;;;;;14.82;6.18;;;;;;;;;;5017410;28;20125;-67
2022/06/08 12:33:45;;;;;;;13.25;6.32;;;;;;;;;;5020555;28;20447;-67
2022/06/08 12:36:19;;;;;;;13.65;5.85;;;;;;;;;;5019785;28;20041;-67
2022/06/08 12:39:00;;;;;;;17.25;6.57;;;;;;;;;;5018455;28;20516;-66
2022/06/08 12:41:41;;;;;;;13.30;6.53;;;;;;;;;;5018989;28;20059;-66
2022/06/08 12:44:14;;;;;;;15.07;7.43;;;;;;;;;;5026440;28;20128;-66
2022/06/08 12:46:47;;;;;;;13.40;7.20;;;;;;;;;;5019150;28;20053;-67
2022/06/08 12:49:16;;;;;;;16.27;7.90;;;;;;;;;;5014647;28;20030;-67
2022/06/08 12:51:45;;;;;;;14.52;6.75;;;;;;;;;;5021111;28;20047;-67
2022/06/08 12:54:20;;;;;;;17.63;7.63;;;;;;;;;;5010454;28;20040;-67
2022/06/08 12:56:48;;;;;;;13.13;7.38;;;;;;;;;;5013012;28;20044;-67
2022/06/08 12:59:15;;;;;;;13.40;7.53;;;;;;;;;;5013157;28;20025;-67
2022/06/08 13:01:44;;;;;;;15.50;7.32;;;;;;;;;;5017532;28;20478;-67
2022/06/08 13:04:11;;;;;;;14.82;7.28;;;;;;;;;;5015020;28;20113;-67
2022/06/08 13:06:37;;;;;;;14.57;6.78;;;;;;;;;;5015374;28;20114;-67
2022/06/08 13:09:04;;;;;;;11.55;6.90;;;;;;;;;;5021585;28;20109;-66
2022/06/08 13:11:30;;;;;;;13.20;7.53;;;;;;;;;;5018064;28;20030;-67
2022/06/08 13:13:57;;;;;;;15.82;8.32;;;;;;;;;;5019005;28;20095;-67
2022/06/08 13:16:25;;;;;;;23.83;8.57;;;;;;;;;;5015343;28;20029;-67
2022/06/08 13:18:51;;;;;;;14.52;7.10;;;;;;;;;;5017633;28;20042;-67
2022/06/08 13:21:18;;;;;;;11.80;7.10;;;;;;;;;;5020636;28;21405;-67
2022/06/08 13:23:44;;;;;;;18.17;8.18;;;;;;;;;;5017501;28;20487;-68
2022/06/08 13:26:22;;;;;;;11.35;7.55;;;;;;;;;;5016715;28;20079;-66
2022/06/08 13:28:48;;;;;;;17.40;8.05;;;;;;;;;;5016197;28;20049;-67
2022/06/08 13:31:22;;;;;;;19.40;8.48;;;;;;;;;;5020880;28;20345;-67
2022/06/08 13:34:03;;;;;;;15.35;7.80;;;;;;;;;;5022271;28;20036;-67
2022/06/08 13:36:49;;;;;;;12.63;6.50;;;;;;;;;;5017767;28;20115;-67
2022/06/08 13:39:23;;;;;;;7.88;5.38;;;;;;;;;;5017253;28;20851;-66
2022/06/08 13:41:51;;;;;;;8.00;5.15;;;;;;;;;;5015775;28;20391;-66
2022/06/08 13:44:28;;;;;;;11.70;6.18;;;;;;;;;;5017998;28;20084;-65
2022/06/08 13:46:57;;;;;;;11.95;5.95;;;;;;;;;;5017986;28;20041;-66
2022/06/08 13:49:24;;;;;;;9.13;5.10;;;;;;;;;;5023775;28;20112;-67
2022/06/08 13:51:51;;;;;;;12.35;6.03;;;;;;;;;;5034018;28;20042;-67
2022/06/08 13:54:19;;;;;;;10.55;5.80;;;;;;;;;;5012638;28;20046;-67
2022/06/08 13:56:45;;;;;;;9.57;5.45;;;;;;;;;;5015521;28;20030;-67
2022/06/08 13:59:11;;;;;;;8.13;4.78;;;;;;;;;;5019911;28;20483;-66
2022/06/08 14:01:38;;;;;;;7.63;4.80;;;;;;;;;;5020224;28;20022;-66
2022/06/08 14:04:11;;;;;;;6.47;4.10;;;;;;;;;;5019075;28;20026;-66
2022/06/08 14:14:52;;;;;;;11.18;6.50;;;;;;;;;;5030650;28;20075;-68
2022/06/08 14:17:19;;;;;;;9.27;6.70;;;;;;;;;;5028152;28;20442;-67
2022/06/08 14:19:52;;;;;;;11.38;6.70;;;;;;;;;;5026029;28;20025;-66
2022/06/08 14:22:20;;;;;;;11.65;7.05;;;;;;;;;;5021159;28;20076;-66
2022/06/08 14:24:48;;;;;;;11.57;7.43;;;;;;;;;;5014466;28;20396;-65
2022/06/08 14:27:15;;;;;;;10.15;7.82;;;;;;;;;;5010545;28;20155;-66
2022/06/08 14:29:41;;;;;;;12.65;8.25;;;;;;;;;;5020948;28;20161;-66
2022/06/08 14:32:13;;;;;;;14.20;8.93;;;;;;;;;;5022572;28;20096;-66
2022/06/08 14:34:40;;;;;;;12.70;7.80;;;;;;;;;;5019713;28;20048;-66
2022/06/08 14:37:08;;;;;;;11.65;7.93;;;;;;;;;;5028134;28;20025;-68
2022/06/08 14:39:35;;;;;;;11.00;8.63;;;;;;;;;;5024852;28;20033;-67
2022/06/08 14:42:02;;;;;;;11.63;8.52;;;;;;;;;;5023641;28;20034;-67
2022/06/08 14:44:29;;;;;;;11.18;9.05;;;;;;;;;;5026498;28;20025;-67
2022/06/08 14:47:11;;;;;;;13.50;9.73;;;;;;;;;;5033077;28;20132;-67
2022/06/08 14:49:38;;;;;;;13.38;9.63;;;;;;;;;;5026565;28;20079;-67
2022/06/08 14:52:05;;;;;;;11.60;8.90;;;;;;;;;;5024400;28;20034;-66
2022/06/08 14:54:33;;;;;;;10.15;8.75;;;;;;;;;;5022377;28;20121;-66
2022/06/08 14:57:07;;;;;;;10.55;9.20;;;;;;;;;;5021136;28;20132;-66
2022/06/08 14:59:34;;;;;;;13.25;7.88;;;;;;;;;;5018094;28;20088;-67
2022/06/08 15:02:08;;;;;;;11.70;8.43;;;;;;;;;;5023331;28;20451;-67